Time;durP1;ratioP1;P1;durP2;ratioP2;P2;SDS_P1;SDS_P2;PMS_P1;PMS_P2;Temp;Humidity;BMP_temperature;BMP_pressure;BME280_temperature;BME280_humidity;BME280_pressure;Samples;Min_cycle;Max_cycle;Signal;HPM_P1;HPM_P2
2021/06/02 00:00:47;;;;;;;5.02;1.90;;;;;;;12.95;49.48;99385.88;329810;110;1966931;-73
2021/06/02 00:02:06;;;;;;;4.56;1.63;;;;;;;13.07;49.44;99394.05;398465;104;1985949;-72
2021/06/02 00:03:15;;;;;;;6.57;1.65;;;;;;;12.94;49.46;99390.48;324053;107;2711916;-74
2021/06/02 00:04:29;;;;;;;4.72;1.69;;;;;;;13.07;49.40;99388.63;358787;106;1987956;-72
2021/06/02 00:05:35;;;;;;;8.78;2.13;;;;;;;12.95;49.58;99386.70;368134;108;1963965;-73
2021/06/02 00:06:49;;;;;;;4.77;1.65;;;;;;;13.07;49.61;99388.63;335533;103;2206867;-72
2021/06/02 00:07:56;;;;;;;3.35;1.59;;;;;;;12.89;49.52;99375.95;369321;107;1961968;-73
2021/06/02 00:09:19;;;;;;;4.93;1.56;;;;;;;12.96;49.50;99382.92;363376;104;1963024;-73
2021/06/02 00:10:32;;;;;;;4.33;1.54;;;;;;;13.06;49.58;99378.86;340170;104;2859004;-74
2021/06/02 00:11:37;;;;;;;5.17;1.55;;;;;;;12.96;49.50;99391.05;353785;105;1961795;-74
2021/06/02 00:12:42;;;;;;;4.42;1.82;;;;;;;12.96;49.50;99387.52;372201;107;1961913;-73
2021/06/02 00:13:56;;;;;;;4.85;1.54;;;;;;;13.08;49.50;99380.28;386996;106;1985999;-73
2021/06/02 00:15:04;;;;;;;6.11;1.73;;;;;;;12.98;49.57;99380.00;331815;109;2628920;-74
2021/06/02 00:16:17;;;;;;;6.00;1.77;;;;;;;13.11;49.33;99379.00;357207;104;1991911;-72
2021/06/02 00:17:23;;;;;;;5.02;1.44;;;;;;;13.00;49.28;99385.20;374295;107;1964031;-73
2021/06/02 00:18:47;;;;;;;4.90;1.66;;;;;;;13.00;49.43;99379.78;337935;107;2526869;-73
2021/06/02 00:19:59;;;;;;;8.98;2.09;;;;;;;13.10;49.49;99377.36;384198;106;1964979;-73
2021/06/02 00:21:06;;;;;;;3.95;1.57;;;;;;;12.98;49.42;99369.97;366593;109;1970044;-74
2021/06/02 00:22:18;;;;;;;7.08;1.97;;;;;;;13.10;49.42;99371.93;382539;106;1987053;-73
2021/06/02 00:23:25;;;;;;;4.15;1.93;;;;;;;12.97;49.39;99379.17;363301;109;1963077;-74
2021/06/02 00:24:48;;;;;;;5.35;1.67;;;;;;;12.95;49.52;99375.86;352486;113;1965027;-74
2021/06/02 00:26:03;;;;;;;4.39;1.36;;;;;;;13.05;49.72;99378.03;365639;104;2402963;-74
2021/06/02 00:27:13;;;;;;;6.89;1.72;;;;;;;12.93;49.66;99369.83;372809;107;1961964;-73
2021/06/02 00:28:26;;;;;;;10.86;2.12;;;;;;;13.03;49.77;99377.43;359325;104;2553867;-74
2021/06/02 00:29:34;;;;;;;4.52;1.63;;;;;;;12.91;49.76;99368.41;365508;110;1962006;-75
2021/06/02 00:30:58;;;;;;;5.17;1.97;;;;;;;12.88;49.76;99375.11;370383;106;1965121;-75
2021/06/02 00:32:07;;;;;;;6.41;1.61;;;;;;;12.86;49.87;99377.23;375497;107;1962899;-75
2021/06/02 00:33:20;;;;;;;4.90;1.79;;;;;;;12.96;50.00;99363.13;388473;106;1986018;-75
2021/06/02 00:34:27;;;;;;;7.12;1.84;;;;;;;12.83;49.88;99372.25;336453;110;1962958;-76
2021/06/02 00:35:44;;;;;;;8.21;2.17;;;;;;;12.93;50.05;99364.41;400624;103;1963919;-75
2021/06/02 00:36:51;;;;;;;4.89;1.61;;;;;;;12.81;49.97;99368.96;349183;105;2517905;-76
2021/06/02 00:38:03;;;;;;;5.10;1.76;;;;;;;12.89;50.13;99368.65;385099;106;1961977;-75
2021/06/02 00:39:10;;;;;;;4.94;1.59;;;;;;;12.76;50.09;99371.53;368738;108;1970043;-76
2021/06/02 00:40:41;;;;;;;3.85;1.71;;;;;;;12.74;50.17;99373.63;368569;107;1961890;-74
2021/06/02 00:41:48;;;;;;;5.39;1.83;;;;;;;12.73;50.19;99371.98;369997;109;1961903;-73
2021/06/02 00:43:00;;;;;;;5.72;1.65;;;;;;;12.83;50.31;99364.12;348964;104;2094888;-73
2021/06/02 00:44:07;;;;;;;5.53;1.98;;;;;;;12.71;50.35;99363.25;345322;107;1964970;-71
2021/06/02 00:45:20;;;;;;;5.42;1.73;;;;;;;12.81;50.42;99368.96;354994;104;2649977;-71
2021/06/02 00:46:26;;;;;;;4.77;1.84;;;;;;;12.69;50.54;99362.64;373706;107;1964415;-73
2021/06/02 00:47:40;;;;;;;4.48;1.90;;;;;;;12.81;50.45;99357.27;382541;106;1965978;-73
2021/06/02 00:48:51;;;;;;;7.36;2.52;;;;;;;12.80;50.43;99361.87;386651;105;1966021;-72
2021/06/02 00:49:57;;;;;;;4.20;1.56;;;;;;;12.69;50.46;99360.75;363674;107;1970032;-73
2021/06/02 00:51:10;;;;;;;4.87;1.99;;;;;;;12.80;50.49;99361.87;331141;106;2163800;-73
2021/06/02 00:52:16;;;;;;;5.57;1.99;;;;;;;12.70;50.49;99358.86;370320;107;1963296;-74
2021/06/02 00:53:39;;;;;;;4.71;1.62;;;;;;;12.71;50.49;99352.41;345803;109;2320915;-74
2021/06/02 00:54:45;;;;;;;7.22;2.00;;;;;;;12.70;50.54;99348.88;356060;109;1965043;-73
2021/06/02 00:55:53;;;;;;;8.42;2.27;;;;;;;12.70;50.66;99357.00;368983;109;1960952;-73
2021/06/02 00:57:17;;;;;;;3.86;1.85;;;;;;;12.84;50.57;99356.84;383731;106;1987045;-74
2021/06/02 00:58:28;;;;;;;6.19;2.11;;;;;;;12.74;50.45;99344.64;360539;111;1962967;-71
2021/06/02 00:59:43;;;;;;;3.63;1.62;;;;;;;12.88;50.36;99352.59;394035;104;1986878;-75
2021/06/02 01:00:49;;;;;;;6.17;2.22;;;;;;;12.77;50.38;99354.20;329390;107;2789038;-73
2021/06/02 01:02:18;;;;;;;7.08;2.11;;;;;;;12.76;50.35;99357.97;374915;106;1961927;-73
2021/06/02 01:03:34;;;;;;;4.65;1.91;;;;;;;12.87;50.40;99357.20;399290;103;1987993;-73
2021/06/02 01:04:41;;;;;;;7.25;1.99;;;;;;;12.76;50.37;99357.97;379431;105;1961961;-74
2021/06/02 01:05:56;;;;;;;5.83;1.53;;;;;;;12.88;50.37;99355.31;373278;104;2274064;-74
2021/06/02 01:07:04;;;;;;;4.18;1.52;;;;;;;12.75;50.49;99354.44;375441;106;1961937;-73
2021/06/02 01:08:21;;;;;;;4.86;1.97;;;;;;;12.85;50.53;99353.06;394326;104;1986940;-73
2021/06/02 01:09:27;;;;;;;4.89;1.90;;;;;;;12.73;50.48;99353.02;374312;107;1961910;-73
2021/06/02 01:10:51;;;;;;;7.86;2.09;;;;;;;12.74;50.70;99351.95;376237;107;1962047;-75
2021/06/02 01:11:57;;;;;;;3.33;1.50;;;;;;;12.73;50.54;99353.02;375587;105;1961988;-74
2021/06/02 01:13:13;;;;;;;3.28;1.57;;;;;;;12.84;50.71;99349.53;394609;104;1961960;-74
2021/06/02 01:14:21;;;;;;;6.86;1.95;;;;;;;12.71;50.71;99342.39;359273;107;1962985;-74
2021/06/02 01:15:34;;;;;;;6.12;2.22;;;;;;;12.83;50.77;99330.77;383876;101;2312015;-73
2021/06/02 01:16:42;;;;;;;4.24;1.67;;;;;;;12.73;50.59;99347.59;386112;103;1961940;-74
2021/06/02 01:18:10;;;;;;;5.46;1.99;;;;;;;12.73;50.65;99347.59;371755;106;1960624;-74
2021/06/02 01:19:20;;;;;;;5.10;1.86;;;;;;;12.72;50.67;99345.92;372194;106;1962028;-73
2021/06/02 01:20:36;;;;;;;5.58;1.71;;;;;;;12.84;50.77;99343.28;340136;104;2238974;-73
2021/06/02 01:21:57;;;;;;;5.34;2.36;;;;;;;12.72;50.72;99340.50;375844;107;1960639;-73
2021/06/02 01:23:11;;;;;;;5.26;2.25;;;;;;;12.83;50.84;99338.90;403505;101;1985981;-73
2021/06/02 01:24:19;;;;;;;9.04;1.92;;;;;;;12.70;50.80;99338.03;330171;105;2846825;-74
2021/06/02 01:25:26;;;;;;;6.67;2.18;;;;;;;12.71;50.86;99349.70;382528;105;1960934;-74
2021/06/02 01:26:41;;;;;;;7.21;2.53;;;;;;;12.80;50.89;99350.20;393346;104;1986065;-74
2021/06/02 01:27:48;;;;;;;6.56;1.89;;;;;;;12.71;50.78;99341.56;377767;106;1961095;-74
2021/06/02 01:28:54;;;;;;;5.20;2.13;;;;;;;12.71;50.83;99341.56;377594;106;1962069;-75
2021/06/02 01:30:09;;;;;;;9.74;2.31;;;;;;;12.82;50.86;99339.97;394155;104;2079793;-75
2021/06/02 01:31:19;;;;;;;4.16;1.89;;;;;;;12.70;50.97;99345.31;377416;107;1960887;-74
2021/06/02 01:32:58;;;;;;;6.85;1.85;;;;;;;12.80;51.16;99342.89;361271;106;2329915;-75
2021/06/02 01:34:23;;;;;;;5.80;2.14;;;;;;;12.71;51.02;99338.86;367892;108;1961970;-74
2021/06/02 01:35:48;;;;;;;5.78;1.89;;;;;;;12.84;51.15;99343.28;394369;104;1985865;-75
2021/06/02 01:37:09;;;;;;;5.89;2.13;;;;;;;12.71;50.95;99341.56;377236;106;1961911;-75
2021/06/02 01:38:58;;;;;;;4.98;1.92;;;;;;;12.71;51.01;99341.56;369405;106;1961670;-76
2021/06/02 01:40:21;;;;;;;5.09;2.15;;;;;;;12.79;51.28;99345.85;345128;104;2798775;-75
2021/06/02 01:41:32;;;;;;;7.66;2.07;;;;;;;12.68;51.35;99345.56;328258;105;2034303;-74
2021/06/02 01:43:06;;;;;;;3.32;1.66;;;;;;;12.70;51.64;99338.03;371084;107;1961022;-73
2021/06/02 01:44:33;;;;;;;5.17;2.13;;;;;;;12.70;51.36;99348.88;301615;109;2209307;-74
2021/06/02 01:46:02;;;;;;;7.02;2.03;;;;;;;12.71;51.16;99341.56;365839;109;1962014;-74
2021/06/02 01:47:27;;;;;;;6.93;2.37;;;;;;;12.81;51.25;99344.56;403171;101;1986951;-75
2021/06/02 01:48:54;;;;;;;3.98;1.72;;;;;;;12.68;51.25;99352.86;378237;106;1962945;-74
2021/06/02 01:50:16;;;;;;;6.12;1.84;;;;;;;12.61;51.31;99350.22;378889;106;1961869;-74
2021/06/02 01:51:54;;;;;;;4.22;1.87;;;;;;;12.72;51.54;99345.92;393961;103;1986957;-74
2021/06/02 01:53:22;;;;;;;8.50;2.78;;;;;;;12.59;51.46;99349.61;331928;109;2647024;-75
2021/06/02 01:55:13;;;;;;;7.08;1.96;;;;;;;12.69;51.57;99344.49;354041;104;2654463;-73
2021/06/02 01:56:42;;;;;;;8.58;2.10;;;;;;;12.52;51.67;99347.00;375350;107;1963930;-75
2021/06/02 01:58:01;;;;;;;5.51;2.68;;;;;;;12.54;51.74;99339.48;366634;107;1962004;-74
2021/06/02 02:00:10;;;;;;;6.40;1.96;;;;;;;12.67;51.62;99346.59;397441;103;1985960;-74
2021/06/02 02:01:34;;;;;;;6.79;2.34;;;;;;;12.66;51.67;99349.55;381903;108;1988962;-73
2021/06/02 02:02:53;;;;;;;7.94;2.07;;;;;;;12.65;51.96;99347.88;388802;104;1985945;-74
2021/06/02 02:04:43;;;;;;;5.52;2.07;;;;;;;12.52;51.92;99352.42;372076;107;1961934;-74
2021/06/02 02:06:05;;;;;;;5.08;1.98;;;;;;;12.65;52.04;99347.88;394595;104;1986952;-74
2021/06/02 02:08:04;;;;;;;5.54;1.91;;;;;;;12.56;51.95;99349.25;341222;107;2524948;-74
2021/06/02 02:09:13;;;;;;;4.54;1.71;;;;;;;12.56;51.82;99354.67;356956;108;1960844;-74
2021/06/02 02:10:39;;;;;;;6.85;2.67;;;;;;;12.69;51.98;99347.20;397122;104;1985879;-74
2021/06/02 02:11:45;;;;;;;6.67;1.66;;;;;;;12.59;51.75;99356.92;383929;105;1961964;-75
2021/06/02 02:13:21;;;;;;;5.07;2.08;;;;;;;12.62;51.69;99359.17;374922;107;1962002;-73
2021/06/02 02:14:43;;;;;;;6.33;2.52;;;;;;;12.76;51.72;99363.39;368292;104;2363897;-71
2021/06/02 02:16:24;;;;;;;5.82;2.30;;;;;;;12.67;51.62;99362.03;344882;106;1962008;-75
2021/06/02 02:17:56;;;;;;;5.84;2.54;;;;;;;12.81;51.69;99365.40;351635;104;2562989;-74
2021/06/02 02:19:28;;;;;;;6.49;1.77;;;;;;;12.71;51.69;99366.78;368032;108;1961978;-74
2021/06/02 02:20:52;;;;;;;7.68;1.93;;;;;;;12.82;51.76;99361.66;393604;104;1964978;-74
2021/06/02 02:22:14;;;;;;;6.03;1.97;;;;;;;12.73;51.54;99371.98;337796;105;2566007;-73
2021/06/02 02:23:41;;;;;;;5.87;1.92;;;;;;;12.73;51.52;99366.56;328727;107;2720943;-73
2021/06/02 02:25:04;;;;;;;4.33;1.97;;;;;;;12.88;51.54;99363.44;402165;101;1986967;-75
2021/06/02 02:26:18;;;;;;;6.06;1.88;;;;;;;12.75;51.60;99354.44;383648;103;1961986;-73
2021/06/02 02:27:55;;;;;;;5.52;2.16;;;;;;;12.78;51.43;99361.29;381434;103;1961945;-72
2021/06/02 02:29:14;;;;;;;4.58;1.94;;;;;;;12.96;51.41;99363.95;382053;101;2071967;-71
2021/06/02 02:30:46;;;;;;;5.96;1.70;;;;;;;12.86;51.32;99360.13;383616;104;1962978;-73
2021/06/02 02:32:10;;;;;;;9.16;2.51;;;;;;;12.98;51.47;99366.44;393983;104;1987026;-73
2021/06/02 02:33:19;;;;;;;11.24;2.65;;;;;;;12.91;51.36;99371.11;369427;107;1962006;-73
2021/06/02 02:36:28;;;;;;;6.96;2.31;;;;;;;13.11;51.08;99365.44;353200;101;2126842;-72
2021/06/02 02:37:54;;;;;;;7.22;2.42;;;;;;;13.12;51.08;99370.61;347992;101;2854099;-73
2021/06/02 02:39:33;;;;;;;6.21;2.57;;;;;;;13.01;50.95;99370.58;379271;106;1961918;-73
2021/06/02 02:40:59;;;;;;;4.98;1.71;;;;;;;13.17;50.88;99367.22;383462;104;2922964;-73
2021/06/02 02:42:28;;;;;;;8.53;2.66;;;;;;;13.08;50.82;99376.75;373227;107;1962959;-73
2021/06/02 02:43:55;;;;;;;5.14;2.38;;;;;;;13.11;50.86;99371.69;363785;106;1963951;-71
2021/06/02 02:45:24;;;;;;;7.98;2.06;;;;;;;13.27;50.75;99372.13;393055;103;1986955;-72
2021/06/02 02:46:41;;;;;;;7.22;2.12;;;;;;;13.17;50.68;99375.36;346342;107;1961999;-73
2021/06/02 02:48:22;;;;;;;11.20;2.82;;;;;;;13.31;50.56;99374.16;384683;106;1985905;-72
2021/06/02 02:49:38;;;;;;;6.35;1.88;;;;;;;13.36;50.54;99378.88;394803;104;1985962;-71
2021/06/02 02:51:25;;;;;;;8.97;2.74;;;;;;;13.25;50.43;99379.63;378480;107;1961885;-72
2021/06/02 02:52:52;;;;;;;5.26;2.40;;;;;;;13.37;50.52;99373.23;387684;106;1986040;-74
2021/06/02 02:54:05;;;;;;;5.79;2.43;;;;;;;13.28;50.50;99379.20;368043;110;1960947;-73
2021/06/02 02:55:34;;;;;;;7.72;2.26;;;;;;;13.29;50.40;99384.41;364041;108;1960898;-73
2021/06/02 02:57:05;;;;;;;7.23;2.49;;;;;;;13.39;50.36;99381.14;401687;104;1984979;-73
2021/06/02 02:58:32;;;;;;;4.54;2.01;;;;;;;13.27;50.24;99374.84;355615;107;1962098;-73
2021/06/02 02:59:48;;;;;;;6.38;1.92;;;;;;;13.36;50.44;99382.44;381372;104;2238824;-74
2021/06/02 03:01:03;;;;;;;5.64;1.97;;;;;;;13.27;50.37;99383.80;379792;105;1960911;-73
2021/06/02 03:02:16;;;;;;;6.74;1.80;;;;;;;13.29;50.53;99381.70;339237;105;2625004;-74
2021/06/02 03:03:32;;;;;;;7.01;2.01;;;;;;;13.42;50.46;99383.39;393219;104;1986920;-73
2021/06/02 03:04:54;;;;;;;5.68;2.06;;;;;;;13.33;50.49;99393.72;376092;105;1963932;-73
2021/06/02 03:06:21;;;;;;;6.08;2.10;;;;;;;13.34;50.50;99392.69;315660;106;2164739;-72
2021/06/02 03:07:30;;;;;;;4.37;1.94;;;;;;;13.37;50.44;99392.22;375047;105;1969946;-69
2021/06/02 03:09:11;;;;;;;6.96;1.97;;;;;;;13.47;50.40;99393.53;384313;106;1986912;-71
2021/06/02 03:10:20;;;;;;;5.08;2.46;;;;;;;13.36;50.44;99393.29;367175;108;1961992;-73
2021/06/02 03:11:42;;;;;;;8.13;2.03;;;;;;;13.51;50.50;99389.30;395746;104;1986019;-73
2021/06/02 03:13:02;;;;;;;5.89;2.34;;;;;;;13.39;50.36;99384.69;369281;109;1962126;-73
2021/06/02 03:14:29;;;;;;;7.80;2.37;;;;;;;13.41;50.28;99396.11;366485;109;1962094;-72
2021/06/02 03:15:57;;;;;;;6.64;2.06;;;;;;;13.52;50.25;99394.52;388051;106;1986988;-74
2021/06/02 03:17:08;;;;;;;6.31;1.95;;;;;;;13.42;50.38;99399.67;322993;107;2741006;-74
2021/06/02 03:18:30;;;;;;;8.33;2.51;;;;;;;13.53;50.30;99392.63;377550;101;2325890;-72
2021/06/02 03:19:42;;;;;;;5.77;2.28;;;;;;;13.44;50.48;99388.57;381508;105;1961981;-74
2021/06/02 03:21:12;;;;;;;7.36;2.48;;;;;;;13.44;50.32;99391.28;384090;103;1964021;-73
2021/06/02 03:22:25;;;;;;;7.98;2.97;;;;;;;13.43;50.43;99401.31;380355;103;1962029;-73
2021/06/02 03:23:57;;;;;;;7.18;3.07;;;;;;;13.51;50.53;99394.73;345381;104;2123961;-73
2021/06/02 03:25:10;;;;;;;6.61;2.77;;;;;;;13.39;50.53;99397.42;370343;105;2931855;-73
2021/06/02 03:26:20;;;;;;;6.59;2.13;;;;;;;13.39;50.54;99383.86;377919;103;1960785;-73
2021/06/02 03:28:31;;;;;;;8.70;3.01;;;;;;;13.50;50.63;99376.81;381673;108;1986391;-73
2021/06/02 03:29:56;;;;;;;7.38;2.64;;;;;;;13.39;50.64;99381.14;363435;110;1963947;-75
2021/06/02 03:31:27;;;;;;;6.57;2.32;;;;;;;13.53;50.68;99387.20;373352;104;2273957;-74
2021/06/02 03:32:57;;;;;;;8.84;3.24;;;;;;;13.44;50.62;99385.86;339667;106;2525017;-74
2021/06/02 03:34:30;;;;;;;7.86;2.77;;;;;;;13.56;50.68;99384.84;389641;106;1986008;-75
2021/06/02 03:36:00;;;;;;;8.11;2.02;;;;;;;13.47;50.61;99388.10;364650;108;1963354;-76
2021/06/02 03:37:31;;;;;;;11.84;3.72;;;;;;;13.55;50.64;99390.52;345954;103;2088915;-73
2021/06/02 03:38:58;;;;;;;10.58;3.76;;;;;;;13.46;50.57;99392.70;320100;107;2802989;-73
2021/06/02 03:40:32;;;;;;;7.48;2.41;;;;;;;13.59;50.66;99397.94;375899;104;1985697;-74
2021/06/02 03:41:57;;;;;;;9.73;2.94;;;;;;;13.49;50.50;99394.95;320330;107;2106081;-74
2021/06/02 03:43:30;;;;;;;9.62;2.56;;;;;;;13.61;50.64;99393.11;358653;105;2237026;-74
2021/06/02 03:45:13;;;;;;;5.94;2.06;;;;;;;13.48;50.71;99401.45;367806;107;1962017;-74
2021/06/02 03:46:29;;;;;;;12.41;5.38;;;;;;;13.50;50.68;99398.52;366724;109;1961987;-75
2021/06/02 03:48:00;;;;;;;6.70;3.08;;;;;;;13.61;50.77;99403.14;351055;104;2648917;-72
2021/06/02 03:49:36;;;;;;;9.24;2.46;;;;;;;13.52;50.63;99408.09;362281;109;2916998;-74
2021/06/02 03:51:23;;;;;;;10.64;3.87;;;;;;;13.64;50.53;99406.21;385823;106;1985992;-75
2021/06/02 03:52:38;;;;;;;8.13;2.30;;;;;;;13.55;50.47;99401.37;366070;109;1961938;-73
2021/06/02 03:54:23;;;;;;;8.91;3.21;;;;;;;13.68;50.50;99400.31;395298;104;1986941;-75
2021/06/02 03:55:45;;;;;;;7.28;2.81;;;;;;;13.58;50.60;99401.72;375449;105;1962032;-74
2021/06/02 03:57:24;;;;;;;9.19;3.14;;;;;;;13.72;50.58;99399.63;395702;104;1985939;-75
2021/06/02 03:58:54;;;;;;;7.83;2.63;;;;;;;13.64;50.63;99394.53;377114;106;1962974;-76
2021/06/02 04:00:12;;;;;;;10.41;2.26;;;;;;;13.74;50.63;99392.08;368424;104;2432947;-75
2021/06/02 04:01:32;;;;;;;8.59;2.77;;;;;;;13.76;50.60;99389.97;402570;101;1986940;-73
2021/06/02 04:03:11;;;;;;;7.82;2.61;;;;;;;13.68;50.55;99398.45;342983;107;2879943;-75
2021/06/02 04:04:51;;;;;;;11.63;3.60;;;;;;;13.75;50.69;99396.44;394755;104;1985891;-77
2021/06/02 04:06:17;;;;;;;8.64;2.65;;;;;;;13.78;50.66;99379.67;396859;103;1985923;-75
2021/06/02 04:08:18;;;;;;;7.65;2.96;;;;;;;13.68;50.70;99382.16;339573;107;1960897;-74
2021/06/02 04:09:51;;;;;;;15.22;3.36;;;;;;;13.84;50.61;99377.94;331183;103;2230024;-75
2021/06/02 04:11:18;;;;;;;10.26;2.54;;;;;;;13.76;50.52;99387.25;373579;107;1962008;-74
2021/06/02 04:12:27;;;;;;;5.23;2.21;;;;;;;13.76;50.52;99398.11;376029;106;1961973;-76
2021/06/02 04:13:55;;;;;;;7.03;2.22;;;;;;;13.81;50.42;99391.95;387124;106;1987941;-74
2021/06/02 04:15:04;;;;;;;8.34;2.79;;;;;;;13.76;50.48;99389.11;321880;109;2055151;-75
2021/06/02 04:16:14;;;;;;;6.08;1.94;;;;;;;13.79;50.47;99386.78;322731;109;2770969;-75
2021/06/02 04:17:25;;;;;;;9.62;2.84;;;;;;;13.80;50.43;99398.45;359276;108;2909929;-74
2021/06/02 04:18:38;;;;;;;15.83;6.48;;;;;;;13.90;50.65;99395.18;395895;103;1986933;-74
2021/06/02 04:19:57;;;;;;;13.63;3.84;;;;;;;13.93;50.88;99398.23;377776;108;1985920;-75
2021/06/02 04:21:24;;;;;;;8.39;2.79;;;;;;;13.87;50.71;99391.05;336588;110;1961869;-75
2021/06/02 04:22:32;;;;;;;5.92;2.45;;;;;;;13.91;50.58;99396.82;349319;110;2948003;-75
2021/06/02 04:23:46;;;;;;;9.04;2.39;;;;;;;14.03;50.48;99393.06;348855;104;2871972;-74
2021/06/02 04:24:52;;;;;;;10.79;3.27;;;;;;;13.97;50.47;99398.59;376612;107;1961959;-74
2021/06/02 04:26:00;;;;;;;5.11;2.25;;;;;;;14.00;50.39;99398.14;376234;107;1962002;-74
2021/06/02 04:27:06;;;;;;;5.39;2.11;;;;;;;14.03;50.29;99408.53;372940;107;1961916;-74
2021/06/02 04:28:16;;;;;;;10.22;2.41;;;;;;;14.05;50.09;99393.66;366128;108;1961893;-75
2021/06/02 04:29:49;;;;;;;8.45;2.96;;;;;;;14.18;50.04;99394.47;399075;103;1987031;-75
2021/06/02 04:30:58;;;;;;;8.98;3.09;;;;;;;14.08;50.09;99398.61;320331;105;2106478;-77
2021/06/02 04:32:06;;;;;;;8.01;3.16;;;;;;;14.11;50.03;99397.31;330886;105;2731161;-74
2021/06/02 04:33:22;;;;;;;7.89;2.34;;;;;;;14.26;49.95;99403.11;339367;108;2627078;-75
2021/06/02 04:34:29;;;;;;;13.00;2.84;;;;;;;14.12;50.04;99393.53;359468;110;1961960;-75
2021/06/02 04:35:37;;;;;;;11.37;3.81;;;;;;;14.17;49.91;99392.83;334606;110;1961951;-74
2021/06/02 04:37:10;;;;;;;13.42;4.29;;;;;;;13.75;49.95;99304.14;379008;99;2485938;-74
2021/06/02 04:38:21;;;;;;;13.86;4.04;;;;;;;14.20;49.89;99395.89;387572;102;1961951;-75
2021/06/02 04:39:28;;;;;;;9.55;3.09;;;;;;;14.24;49.89;99396.27;387372;104;1963021;-73
2021/06/02 04:40:40;;;;;;;8.69;3.23;;;;;;;14.38;49.90;99394.13;393880;103;1987984;-75
2021/06/02 04:41:46;;;;;;;13.71;3.94;;;;;;;14.27;49.81;99403.94;366221;110;1962077;-75
2021/06/02 04:43:00;;;;;;;10.81;3.26;;;;;;;14.40;49.82;99400.16;346956;106;2604059;-75
2021/06/02 04:44:07;;;;;;;8.94;3.12;;;;;;;14.30;49.74;99398.84;366701;109;1961949;-74
2021/06/02 04:45:26;;;;;;;11.12;3.95;;;;;;;14.29;49.80;99399.92;368963;107;1961957;-75
2021/06/02 04:46:40;;;;;;;13.03;4.85;;;;;;;14.47;49.73;99389.97;348111;104;2780030;-74
2021/06/02 04:47:47;;;;;;;7.43;3.03;;;;;;;14.38;49.79;99394.13;378734;105;1962028;-74
2021/06/02 04:48:53;;;;;;;6.99;2.78;;;;;;;14.42;49.67;99403.44;378659;105;1962978;-74
2021/06/02 04:50:12;;;;;;;11.94;4.38;;;;;;;14.56;49.48;99387.77;397145;103;1985974;-76
2021/06/02 04:52:02;;;;;;;7.66;2.26;;;;;;;14.46;49.32;99391.86;370396;108;1961973;-75
2021/06/02 04:53:41;;;;;;;6.43;2.49;;;;;;;14.54;49.36;99387.98;363501;103;1987006;-75
2021/06/02 04:55:30;;;;;;;9.22;2.85;;;;;;;14.52;49.53;99390.08;386377;106;1985921;-75
2021/06/02 04:57:06;;;;;;;11.54;3.27;;;;;;;14.44;49.47;99388.55;334822;110;2459987;-75
2021/06/02 04:58:38;;;;;;;6.51;2.93;;;;;;;14.54;49.31;99389.89;361105;106;1985953;-74
2021/06/02 05:00:06;;;;;;;11.38;3.81;;;;;;;14.55;49.47;99391.53;395457;104;1986013;-75
2021/06/02 05:01:50;;;;;;;6.49;2.31;;;;;;;14.44;49.36;99393.98;376068;107;1961961;-73
2021/06/02 05:03:15;;;;;;;7.76;2.39;;;;;;;14.53;49.16;99390.93;393242;104;1986916;-75
2021/06/02 05:04:59;;;;;;;5.12;2.68;;;;;;;14.43;49.19;99394.24;376645;106;1961920;-75
2021/06/02 05:06:30;;;;;;;8.03;3.37;;;;;;;14.58;49.21;99393.77;377395;108;1985955;-74
2021/06/02 05:08:05;;;;;;;7.45;2.40;;;;;;;14.47;49.27;99390.81;357737;112;1961979;-75
2021/06/02 05:09:31;;;;;;;22.37;13.91;;;;;;;14.51;49.20;99388.44;356309;113;1960854;-75
2021/06/02 05:10:59;;;;;;;13.29;3.91;;;;;;;14.74;49.26;99401.20;375424;104;2264995;-76
2021/06/02 05:12:17;;;;;;;6.99;2.67;;;;;;;14.67;49.20;99382.30;374707;107;1960797;-76
2021/06/02 05:13:35;;;;;;;8.69;2.47;;;;;;;14.71;48.76;99398.94;335443;108;2567016;-75
2021/06/02 05:15:13;;;;;;;10.08;3.41;;;;;;;14.86;48.59;99382.13;356380;103;2568007;-74
2021/06/02 05:16:45;;;;;;;7.15;2.22;;;;;;;14.76;48.55;99396.33;356577;105;1963891;-76
2021/06/02 05:18:07;;;;;;;6.40;1.86;;;;;;;14.81;48.52;99390.18;351471;106;2404776;-74
2021/06/02 05:23:03;;;;;;;8.60;2.22;;;;;;;14.85;48.59;99391.37;360675;112;1961890;-76
2021/06/02 05:24:24;;;;;;;5.94;2.54;;;;;;;14.88;48.39;99386.27;340553;113;1961930;-76
2021/06/02 05:26:10;;;;;;;12.08;5.27;;;;;;;14.98;48.31;99388.38;379241;108;1985650;-75
2021/06/02 05:27:41;;;;;;;5.83;1.99;;;;;;;14.89;48.31;99387.90;358548;111;1962995;-76
2021/06/02 05:29:32;;;;;;;3.93;1.76;;;;;;;15.07;48.37;99386.09;388788;106;1987000;-76
2021/06/02 05:31:14;;;;;;;7.53;2.28;;;;;;;15.15;48.38;99389.23;396093;104;1986926;-77
2021/06/02 05:32:29;;;;;;;12.03;3.25;;;;;;;15.14;47.82;99390.31;370806;107;1962095;-75
2021/06/02 05:34:06;;;;;;;14.72;4.18;;;;;;;15.31;47.89;99390.35;375581;105;1962028;-76
2021/06/02 05:35:33;;;;;;;10.44;2.53;;;;;;;15.66;47.46;99396.69;361513;104;1986012;-75
2021/06/02 05:37:04;;;;;;;9.22;3.26;;;;;;;15.85;47.26;99395.44;386221;106;1987087;-76
2021/06/02 05:38:59;;;;;;;7.73;2.62;;;;;;;15.85;46.85;99389.98;352511;111;1961966;-76
2021/06/02 05:40:50;;;;;;;8.57;3.31;;;;;;;16.24;46.28;99390.84;339648;104;2868905;-76
2021/06/02 05:41:59;;;;;;;6.96;2.49;;;;;;;16.24;46.24;99392.75;375212;105;1961948;-76
2021/06/02 05:43:56;;;;;;;6.93;2.08;;;;;;;16.55;46.02;99387.75;404643;101;1985987;-75
2021/06/02 05:45:40;;;;;;;8.21;2.55;;;;;;;16.51;45.73;99398.31;372310;105;2952943;-75
2021/06/02 05:46:56;;;;;;;8.21;3.68;;;;;;;16.78;45.38;99389.45;374524;102;2389994;-75
2021/06/02 05:48:31;;;;;;;11.11;3.04;;;;;;;16.71;44.88;99390.42;375470;105;1961979;-76
2021/06/02 05:50:11;;;;;;;6.59;2.40;;;;;;;16.91;44.89;99395.35;392913;104;1988020;-74
2021/06/02 05:51:39;;;;;;;15.14;4.62;;;;;;;16.83;44.88;99393.07;359776;105;2890949;-74
2021/06/02 05:53:02;;;;;;;11.56;3.76;;;;;;;17.03;44.71;99392.48;349164;106;1986940;-76
2021/06/02 05:54:34;;;;;;;8.98;3.39;;;;;;;17.00;44.63;99395.72;342201;109;1964036;-76
2021/06/02 05:56:17;;;;;;;9.21;3.54;;;;;;;17.06;44.68;99391.96;367151;106;1962039;-74
2021/06/02 05:57:47;;;;;;;8.08;2.19;;;;;;;17.19;44.43;99390.75;314024;113;2628000;-72
2021/06/02 05:59:58;;;;;;;11.23;2.78;;;;;;;17.44;44.11;99392.09;398222;103;1985957;-75
2021/06/02 06:01:31;;;;;;;8.06;2.32;;;;;;;17.39;44.04;99405.72;379296;105;1961953;-75
2021/06/02 06:03:00;;;;;;;8.34;2.28;;;;;;;17.46;43.50;99398.94;377844;105;1961931;-74
2021/06/02 06:04:58;;;;;;;11.20;2.89;;;;;;;17.67;43.23;99408.16;390570;106;1964888;-74
2021/06/02 06:06:24;;;;;;;5.30;2.57;;;;;;;17.62;43.07;99405.38;363446;107;1960820;-75
2021/06/02 06:07:53;;;;;;;14.20;5.27;;;;;;;17.80;42.86;99401.48;389299;104;1984929;-74
2021/06/02 06:09:27;;;;;;;7.06;2.42;;;;;;;17.77;42.70;99404.71;328784;107;1969033;-74
2021/06/02 06:11:09;;;;;;;14.83;3.46;;;;;;;17.85;42.73;99401.53;368086;107;1969042;-75
2021/06/02 06:13:01;;;;;;;7.93;2.86;;;;;;;18.05;41.95;99403.62;392599;103;1986173;-77
2021/06/02 06:14:22;;;;;;;9.43;2.28;;;;;;;17.92;41.76;99399.41;375144;106;1962989;-75
2021/06/02 06:15:47;;;;;;;6.58;2.52;;;;;;;17.99;42.08;99402.76;396934;104;1985894;-75
2021/06/02 06:17:29;;;;;;;7.57;2.27;;;;;;;17.93;42.19;99408.44;392020;104;1985863;-76
2021/06/02 06:18:48;;;;;;;8.83;2.64;;;;;;;17.82;42.14;99402.06;371265;109;1961979;-75
2021/06/02 06:20:26;;;;;;;7.60;2.26;;;;;;;17.92;42.16;99401.33;397011;103;1986100;-75
2021/06/02 06:21:42;;;;;;;13.97;3.68;;;;;;;17.83;42.25;99406.42;375242;106;1961912;-74
2021/06/02 06:23:18;;;;;;;9.97;2.48;;;;;;;17.89;42.63;99416.34;375599;107;1963013;-75
2021/06/02 06:24:33;;;;;;;7.42;2.18;;;;;;;18.11;42.26;99408.03;397967;104;1986007;-75
2021/06/02 06:25:49;;;;;;;7.84;2.83;;;;;;;18.05;42.13;99406.36;314272;109;2112959;-75
2021/06/02 06:27:27;;;;;;;10.27;2.77;;;;;;;18.27;41.74;99411.70;394536;103;1988034;-75